首页
METAR-TAF:

METAR-TAF

机场 :

哈立德国王国际机场

利雅德, 沙特阿拉伯

纬度: 24-56N, 经度: 046-43E, 海拔: 614米

当前天气观测

该预报发布于6分钟前的06:00 UTC
风速6节,风向北转东北
温度 15°C
湿度 55%
气压 1020 hPa
能见度10公里或以上
散云层高于4500英尺

METAR: OERK 160600Z 02006KT 9999 SCT045 15/06 Q1020 NOSIG

时间: 09:06 (06:06 UTC)

预报

该预报发布于1小时和6分钟前的05:00 UTC
预报有效从16日的 06点(UTC)到 17日的 12点(UTC)
风速3节,风向多变
能見度: 7000
少量云层高于4000英尺
成为
从 16日的 08点(UTC)到 16日的 10点(UTC)
风速10节,风向南转南东

TAF: OERK 160500Z 1606/1712 VRB03KT 7000 FEW040 BECMG 1608/1610 15010KT

超过4000个机场的气象观测和天气预报(METAR&TAF报告)。

可查询的气象台以黄色和红色小点在地图上表示。

将鼠标移到小点上方,可查看气象台名称。

然后点击查看天气观测和预报。

如需切换地图:点击带黑十字的绿色按钮放大地图;点击带横线的绿色按钮缩小地图;或者点击绿色箭头查看邻近地区的地图。


METAR-TAF: